GCC Virtual Airport Information Service

Guarulhos - Governador André Franco Montoro International Airport

ICAO: SBGR Country: BR
Latitude: -23.4356 Longitude: -46.4731
Latest Arrival : QTR773 (OTHH-SBGR) Latest Departure : QTR774 (SBGR-OTHH)


WX CaptureLIVE
Data provided by noaa.gov | Fetched at 05:58:35

METAR : SBGR 270500Z 07003KT CAVOK 20/19 Q1015

TAF : SBGR 262200Z 2700/2806 03006KT 9999 FEW035TN20/2708Z TX31/2717Z TEMPO 2700/2702 VCTS SCT030 FEW040CB PROB40 2708/2711 6000 BKN008 BECMG 2712/2714 34010KT SCT040 BECMG 2717/2719 34010KT BKN035 FEW040TCU TEMPO 2719/2722 33010G25KT 5000 TSRA BR BKN015 FEW045CB BECMG 2722/2724 04005KT CAVOK RMK PGD


Runway Data for SBGR
Data provided by openaviationdata.com

Runway ID Mag Var Hdg Length Elevation Surface ILS Freq ILS Id ILS Slope
09L -20 93° 12151 ft 2458 ft Asphalt 110.7 IUC 2
09R -20 93° 9819 ft 2458 ft Asphalt 111.5 IGR 2
27L -20 273° 9819 ft 2458 ft Asphalt 111.1 IBC 3
27R -20 273° 12151 ft 2458 ft Asphalt 109.7 IGS 3

Guarulhos - Governador André Franco Montoro International Airport, BR
Use only for reference purposes



Not for navigational purposes.